Time;durP1;ratioP1;P1;durP2;ratioP2;P2;SDS_P1;SDS_P2;PMS_P1;PMS_P2;Temp;Humidity;BMP_temperature;BMP_pressure;BME280_temperature;BME280_humidity;BME280_pressure;Samples;Min_cycle;Max_cycle;Signal;HPM_P1;HPM_P2
2021/05/16 00:00:07;;;;;;;;;;;;;;;;;;5069564;28;19924;-68
2021/05/16 00:02:33;;;;;;;;;;;;;;;;;;5066207;28;19932;-68
2021/05/16 00:05:00;;;;;;;;;;;;;;;;;;5068142;28;20473;-69
2021/05/16 00:07:26;;;;;;;;;;;;;;;;;;5067369;28;19932;-67
2021/05/16 00:09:52;;;;;;;;;;;;;;;;;;5071642;28;19924;-69
2021/05/16 00:12:19;;;;;;;;;;;;;;;;;;5070553;28;19924;-68
2021/05/16 00:14:45;;;;;;;;;;;;;;;;;;5071112;28;19977;-66
2021/05/16 00:17:12;;;;;;;;;;;;;;;;;;5068147;28;19924;-66
2021/05/16 00:19:38;;;;;;;;;;;;;;;;;;5068702;28;19925;-66
2021/05/16 00:22:05;;;;;;;;;;;;;;;;;;5070225;28;19981;-65
2021/05/16 00:24:31;;;;;;;;;;;;;;;;;;5070471;28;19955;-68
2021/05/16 00:26:57;;;;;;;;;;;;;;;;;;5070230;28;19969;-68
2021/05/16 00:29:24;;;;;;;;;;;;;;;;;;5069544;28;19925;-68
2021/05/16 00:31:50;;;;;;;;;;;;;;;;;;5067700;28;20395;-69
2021/05/16 00:34:17;;;;;;;;;;;;;;;;;;5062276;28;20292;-66
2021/05/16 00:36:43;;;;;;;;;;;;;;;;;;5070986;28;19951;-66
2021/05/16 00:39:10;;;;;;;;;;;;;;;;;;5068799;28;19936;-65
2021/05/16 00:41:36;;;;;;;;;;;;;;;;;;5067247;28;19932;-67
2021/05/16 00:44:02;;;;;;;;;;;;;;;;;;5063448;28;20018;-66
2021/05/16 00:46:29;;;;;;;;;;;;;;;;;;5065722;28;19994;-69
2021/05/16 00:48:57;;;;;;;;;;;;;;;;;;5065059;22;20131;-67
2021/05/16 00:51:23;;;;;;;;;;;;;;;;;;5051055;28;19931;-67
2021/05/16 00:53:49;;;;;;;;;;;;;;;;;;5051133;28;20422;-67
2021/05/16 00:56:16;;;;;;;;;;;;;;;;;;5049892;28;20338;-66
2021/05/16 00:58:42;;;;;;;;;;;;;;;;;;5049271;28;20391;-66
2021/05/16 01:01:10;;;;;;;;;;;;;;;;;;5047594;28;19925;-67
2021/05/16 01:03:37;;;;;;;;;;;;;;;;;;5050222;28;19925;-66
2021/05/16 01:06:03;;;;;;;;;;;;;;;;;;5050166;28;20403;-67
2021/05/16 01:08:30;;;;;;;;;;;;;;;;;;5050766;28;19925;-66
2021/05/16 01:10:56;;;;;;;;;;;;;;;;;;5048695;28;19924;-67
2021/05/16 01:13:25;;;;;;;;;;;;;;;;;;5049505;28;19929;-67
2021/05/16 01:15:51;;;;;;;;;;;;;;;;;;5050108;28;20012;-67
2021/05/16 01:18:18;;;;;;;;;;;;;;;;;;5049163;28;20019;-67
2021/05/16 01:20:44;;;;;;;;;;;;;;;;;;5050440;28;19925;-66
2021/05/16 01:23:11;;;;;;;;;;;;;;;;;;5049449;28;20667;-66
2021/05/16 01:25:37;;;;;;;;;;;;;;;;;;5049493;28;19925;-66
2021/05/16 01:28:04;;;;;;;;;;;;;;;;;;5047248;28;19951;-66
2021/05/16 01:30:30;;;;;;;;;;;;;;;;;;5049933;28;19931;-66
2021/05/16 01:32:57;;;;;;;;;;;;;;;;;;5050535;28;19971;-66
2021/05/16 01:35:23;;;;;;;;;;;;;;;;;;5043125;28;19925;-66
2021/05/16 01:37:50;;;;;;;;;;;;;;;;;;5046802;28;19931;-67
2021/05/16 01:40:16;;;;;;;;;;;;;;;;;;5051113;28;20292;-67
2021/05/16 01:42:47;;;;;;;;;;;;;;;;;;5051775;28;19924;-66
2021/05/16 01:45:14;;;;;;;;;;;;;;;;;;5047269;28;19925;-66
2021/05/16 01:47:40;;;;;;;;;;;;;;;;;;5049987;28;20012;-65
2021/05/16 01:50:07;;;;;;;;;;;;;;;;;;5048633;28;19947;-68
2021/05/16 01:52:33;;;;;;;;;;;;;;;;;;5045074;28;19935;-65
2021/05/16 01:55:00;;;;;;;;;;;;;;;;;;5048204;28;19925;-66
2021/05/16 01:57:26;;;;;;;;;;;;;;;;;;5050684;28;19936;-67
2021/05/16 01:59:53;;;;;;;;;;;;;;;;;;5046134;28;19925;-66
2021/05/16 02:02:19;;;;;;;;;;;;;;;;;;5045604;28;19932;-67
2021/05/16 02:04:46;;;;;;;;;;;;;;;;;;5047721;28;20388;-66
2021/05/16 02:07:12;;;;;;;;;;;;;;;;;;5049951;28;19951;-67
2021/05/16 02:09:39;;;;;;;;;;;;;;;;;;5044502;28;20336;-67
2021/05/16 02:12:05;;;;;;;;;;;;;;;;;;5050291;28;20388;-66
2021/05/16 02:14:32;;;;;;;;;;;;;;;;;;5049197;28;19924;-66
2021/05/16 02:16:58;;;;;;;;;;;;;;;;;;5046837;28;19925;-66
2021/05/16 02:19:25;;;;;;;;;;;;;;;;;;5048956;28;19932;-66
2021/05/16 02:21:51;;;;;;;;;;;;;;;;;;5048830;28;20006;-66
2021/05/16 02:24:17;;;;;;;;;;;;;;;;;;5050227;28;19933;-66
2021/05/16 02:26:44;;;;;;;;;;;;;;;;;;5049187;28;19925;-66
2021/05/16 02:29:10;;;;;;;;;;;;;;;;;;5051453;28;20059;-66
2021/05/16 02:31:37;;;;;;;;;;;;;;;;;;5053669;28;20011;-66
2021/05/16 02:34:03;;;;;;;;;;;;;;;;;;5053926;28;19971;-66
2021/05/16 02:36:30;;;;;;;;;;;;;;;;;;5053474;28;19925;-66
2021/05/16 02:38:56;;;;;;;;;;;;;;;;;;5053935;28;19924;-66
2021/05/16 02:41:23;;;;;;;;;;;;;;;;;;5052982;28;19929;-66
2021/05/16 02:43:49;;;;;;;;;;;;;;;;;;5045258;28;19925;-66
2021/05/16 02:46:16;;;;;;;;;;;;;;;;;;5041309;28;20447;-66
2021/05/16 02:48:42;;;;;;;;;;;;;;;;;;5051418;28;19925;-66
2021/05/16 02:51:09;;;;;;;;;;;;;;;;;;5052376;28;19925;-66
2021/05/16 02:53:35;;;;;;;;;;;;;;;;;;5052837;28;19932;-65
2021/05/16 02:56:02;;;;;;;;;;;;;;;;;;5052343;28;19925;-66
2021/05/16 02:58:28;;;;;;;;;;;;;;;;;;5049299;28;19924;-66
2021/05/16 03:00:55;;;;;;;;;;;;;;;;;;5051597;28;19935;-67
2021/05/16 03:03:21;;;;;;;;;;;;;;;;;;5051778;28;19932;-66
2021/05/16 03:05:48;;;;;;;;;;;;;;;;;;5037669;28;19925;-66
2021/05/16 03:08:14;;;;;;;;;;;;;;;;;;5052895;28;20331;-66
2021/05/16 03:10:40;;;;;;;;;;;;;;;;;;5052027;28;19967;-65
2021/05/16 03:13:07;;;;;;;;;;;;;;;;;;5051377;28;20004;-66
2021/05/16 03:15:33;;;;;;;;;;;;;;;;;;5047178;28;19925;-66
2021/05/16 03:18:00;;;;;;;;;;;;;;;;;;5052951;28;19924;-66
2021/05/16 03:20:26;;;;;;;;;;;;;;;;;;5044386;28;20461;-66
2021/05/16 03:22:53;;;;;;;;;;;;;;;;;;5042665;28;20409;-66
2021/05/16 03:25:19;;;;;;;;;;;;;;;;;;5050073;28;19925;-66
2021/05/16 03:27:46;;;;;;;;;;;;;;;;;;5052874;28;20393;-65
2021/05/16 03:30:12;;;;;;;;;;;;;;;;;;5051840;28;19932;-66
2021/05/16 03:32:41;;;;;;;;;;;;;;;;;;5050121;28;19925;-66
2021/05/16 03:35:07;;;;;;;;;;;;;;;;;;5051860;28;19990;-66
2021/05/16 03:37:33;;;;;;;;;;;;;;;;;;5049453;28;19925;-67
2021/05/16 03:40:00;;;;;;;;;;;;;;;;;;5050179;28;20408;-66
2021/05/16 03:42:26;;;;;;;;;;;;;;;;;;5050607;28;19962;-66
2021/05/16 03:44:55;;;;;;;;;;;;;;;;;;5051523;28;19929;-66
2021/05/16 03:47:21;;;;;;;;;;;;;;;;;;5051102;28;19976;-66
2021/05/16 03:49:48;;;;;;;;;;;;;;;;;;5051208;28;19935;-67
2021/05/16 03:52:18;;;;;;;;;;;;;;;;;;5051419;28;19963;-67
2021/05/16 03:54:45;;;;;;;;;;;;;;;;;;5053848;28;19929;-67
2021/05/16 03:57:11;;;;;;;;;;;;;;;;;;5050631;28;19970;-67
2021/05/16 03:59:38;;;;;;;;;;;;;;;;;;5049921;28;19993;-66
2021/05/16 04:02:04;;;;;;;;;;;;;;;;;;5049321;28;19935;-66
2021/05/16 04:04:31;;;;;;;;;;;;;;;;;;5051236;28;19946;-66
2021/05/16 04:06:57;;;;;;;;;;;;;;;;;;5051238;28;19924;-67
2021/05/16 04:09:24;;;;;;;;;;;;;;;;;;5051494;28;19924;-67
2021/05/16 04:11:50;;;;;;;;;;;;;;;;;;5050512;28;19932;-66
2021/05/16 04:14:18;;;;;;;;;;;;;;;;;;5050670;28;20401;-68
2021/05/16 04:16:44;;;;;;;;;;;;;;;;;;5051415;28;20027;-67
2021/05/16 04:19:11;;;;;;;;;;;;;;;;;;5051007;28;19978;-67
2021/05/16 04:21:37;;;;;;;;;;;;;;;;;;5051700;28;19925;-67
2021/05/16 04:24:03;;;;;;;;;;;;;;;;;;5045209;28;19925;-67
2021/05/16 04:26:30;;;;;;;;;;;;;;;;;;5050419;28;20292;-67
2021/05/16 04:28:56;;;;;;;;;;;;;;;;;;5051067;28;19925;-67
2021/05/16 04:31:23;;;;;;;;;;;;;;;;;;5049793;28;20371;-68
2021/05/16 04:33:50;;;;;;;;;;;;;;;;;;5050503;28;19978;-65
2021/05/16 04:36:17;;;;;;;;;;;;;;;;;;5049717;28;19935;-67
2021/05/16 04:38:45;;;;;;;;;;;;;;;;;;5048438;28;19928;-67
2021/05/16 04:41:11;;;;;;;;;;;;;;;;;;5050117;28;19928;-67
2021/05/16 04:43:38;;;;;;;;;;;;;;;;;;5047594;28;19939;-67
2021/05/16 04:46:04;;;;;;;;;;;;;;;;;;5050693;28;20034;-66
2021/05/16 04:48:33;;;;;;;;;;;;;;;;;;5047264;28;19971;-68
2021/05/16 04:51:00;;;;;;;;;;;;;;;;;;5047708;28;19925;-68
2021/05/16 04:53:29;;;;;;;;;;;;;;;;;;5047865;28;20420;-65
2021/05/16 04:55:55;;;;;;;;;;;;;;;;;;5051414;28;19925;-65
2021/05/16 04:58:22;;;;;;;;;;;;;;;;;;5050494;28;19993;-65
2021/05/16 05:00:48;;;;;;;;;;;;;;;;;;5049373;28;19932;-66
2021/05/16 05:03:16;;;;;;;;;;;;;;;;;;5050754;28;19982;-66
2021/05/16 05:05:42;;;;;;;;;;;;;;;;;;5048317;28;20026;-66
2021/05/16 05:08:09;;;;;;;;;;;;;;;;;;5046572;28;19935;-65
2021/05/16 05:10:35;;;;;;;;;;;;;;;;;;5050341;28;19975;-67
2021/05/16 05:13:01;;;;;;;;;;;;;;;;;;5049026;28;19932;-65
2021/05/16 05:15:28;;;;;;;;;;;;;;;;;;5051213;28;19978;-68
2021/05/16 05:17:54;;;;;;;;;;;;;;;;;;5047711;28;20266;-65
2021/05/16 05:20:22;;;;;;;;;;;;;;;;;;5045581;28;20274;-65
2021/05/16 05:22:48;;;;;;;;;;;;;;;;;;5046688;28;19925;-70
2021/05/16 05:25:15;;;;;;;;;;;;;;;;;;5045082;28;19924;-65
2021/05/16 05:27:44;;;;;;;;;;;;;;;;;;5050350;28;19931;-65
2021/05/16 05:30:10;;;;;;;;;;;;;;;;;;5040528;28;19925;-64
2021/05/16 05:32:37;;;;;;;;;;;;;;;;;;5046738;28;20090;-65
2021/05/16 05:35:03;;;;;;;;;;;;;;;;;;5049305;28;19941;-65
2021/05/16 05:37:29;;;;;;;;;;;;;;;;;;5040091;28;19932;-68
2021/05/16 05:39:56;;;;;;;;;;;;;;;;;;5046397;28;19931;-66
2021/05/16 05:42:23;;;;;;;;;;;;;;;;;;5048214;28;19931;-67
2021/05/16 05:44:50;;;;;;;;;;;;;;;;;;5046402;28;19925;-67
2021/05/16 05:47:16;;;;;;;;;;;;;;;;;;5050162;28;19976;-67
2021/05/16 05:49:43;;;;;;;;;;;;;;;;;;5048600;28;20015;-67
2021/05/16 05:52:09;;;;;;;;;;;;;;;;;;5050058;28;19943;-66
2021/05/16 05:54:37;;;;;;;;;;;;;;;;;;5048219;28;19931;-67
2021/05/16 05:57:04;;;;;;;;;;;;;;;;;;5050715;28;19925;-67
2021/05/16 05:59:31;;;;;;;;;;;;;;;;;;5048250;28;19929;-67
2021/05/16 06:01:57;;;;;;;;;;;;;;;;;;5048065;28;19931;-66
2021/05/16 06:04:24;;;;;;;;;;;;;;;;;;5051834;28;19924;-67
2021/05/16 06:06:50;;;;;;;;;;;;;;;;;;5052430;28;20023;-67
2021/05/16 06:09:17;;;;;;;;;;;;;;;;;;5044131;28;20297;-65
2021/05/16 06:11:43;;;;;;;;;;;;;;;;;;5044818;28;20028;-67
2021/05/16 06:14:10;;;;;;;;;;;;;;;;;;5053938;28;20296;-67
2021/05/16 06:16:36;;;;;;;;;;;;;;;;;;5055090;28;19928;-66
2021/05/16 06:19:03;;;;;;;;;;;;;;;;;;5053559;28;19924;-65
2021/05/16 06:21:29;;;;;;;;;;;;;;;;;;5052902;28;19925;-66
2021/05/16 06:24:04;;;;;;;;;;;;;;;;;;5054569;28;20458;-67
2021/05/16 06:26:31;;;;;;;;;;;;;;;;;;5056060;28;19964;-66
2021/05/16 06:28:59;;;;;;;;;;;;;;;;;;5047146;28;19925;-67
2021/05/16 06:31:25;;;;;;;;;;;;;;;;;;5050117;28;19929;-66
2021/05/16 06:33:52;;;;;;;;;;;;;;;;;;5054523;28;19960;-67
2021/05/16 06:36:18;;;;;;;;;;;;;;;;;;5054517;28;19970;-66
2021/05/16 06:38:45;;;;;;;;;;;;;;;;;;5047432;28;19948;-66
2021/05/16 06:41:11;;;;;;;;;;;;;;;;;;5054249;28;19954;-67
2021/05/16 06:43:38;;;;;;;;;;;;;;;;;;5053816;28;19943;-67
2021/05/16 06:46:04;;;;;;;;;;;;;;;;;;5054250;28;19929;-68
2021/05/16 06:48:31;;;;;;;;;;;;;;;;;;5062988;23;19947;-67
2021/05/16 06:50:57;;;;;;;;;;;;;;;;;;5052630;28;19924;-69
2021/05/16 06:53:23;;;;;;;;;;;;;;;;;;5052628;28;19925;-67
2021/05/16 06:55:50;;;;;;;;;;;;;;;;;;5050073;28;19956;-69
2021/05/16 06:58:16;;;;;;;;;;;;;;;;;;5052846;28;19924;-68
2021/05/16 07:00:43;;;;;;;;;;;;;;;;;;5050869;28;20404;-68
2021/05/16 07:03:09;;;;;;;;;;;;;;;;;;5047538;28;20067;-68
2021/05/16 07:05:36;;;;;;;;;;;;;;;;;;5052654;28;20388;-68
2021/05/16 07:08:02;;;;;;;;;;;;;;;;;;5051806;28;19924;-68
2021/05/16 07:10:28;;;;;;;;;;;;;;;;;;5049810;28;19967;-69
2021/05/16 07:12:55;;;;;;;;;;;;;;;;;;5051623;28;19924;-68
2021/05/16 07:15:21;;;;;;;;;;;;;;;;;;5051148;28;19932;-69
2021/05/16 07:17:48;;;;;;;;;;;;;;;;;;5050966;28;19932;-68
2021/05/16 07:20:15;;;;;;;;;;;;;;;;;;5050450;28;19947;-67
2021/05/16 07:22:41;;;;;;;;;;;;;;;;;;5052104;28;19925;-67
2021/05/16 07:25:08;;;;;;;;;;;;;;;;;;5050493;28;19933;-67
2021/05/16 07:27:34;;;;;;;;;;;;;;;;;;5051967;28;19931;-68
2021/05/16 07:30:01;;;;;;;;;;;;;;;;;;5050547;28;19999;-67
2021/05/16 07:32:27;;;;;;;;;;;;;;;;;;5051458;28;19932;-68
2021/05/16 07:34:54;;;;;;;;;;;;;;;;;;5051122;28;19925;-67
2021/05/16 07:37:20;;;;;;;;;;;;;;;;;;5051525;28;19929;-68
2021/05/16 07:39:47;;;;;;;;;;;;;;;;;;5050561;28;19931;-67
2021/05/16 07:42:13;;;;;;;;;;;;;;;;;;5050765;28;20450;-67
2021/05/16 07:44:40;;;;;;;;;;;;;;;;;;5049481;28;19982;-67
2021/05/16 07:47:06;;;;;;;;;;;;;;;;;;5051333;28;19933;-67
2021/05/16 07:49:33;;;;;;;;;;;;;;;;;;5050334;28;19925;-67
2021/05/16 07:51:59;;;;;;;;;;;;;;;;;;5051408;28;19935;-67
2021/05/16 07:54:26;;;;;;;;;;;;;;;;;;5050350;28;19951;-68
2021/05/16 07:56:52;;;;;;;;;;;;;;;;;;5050086;28;20424;-68
2021/05/16 07:59:19;;;;;;;;;;;;;;;;;;5050547;28;19931;-68
2021/05/16 08:01:45;;;;;;;;;;;;;;;;;;5048623;28;19933;-68
2021/05/16 08:04:12;;;;;;;;;;;;;;;;;;5050884;28;20381;-67
2021/05/16 08:06:38;;;;;;;;;;;;;;;;;;5050103;28;19971;-67
2021/05/16 08:09:05;;;;;;;;;;;;;;;;;;5049882;28;19924;-66
2021/05/16 08:11:31;;;;;;;;;;;;;;;;;;5049682;28;20385;-67
2021/05/16 08:13:58;;;;;;;;;;;;;;;;;;5050513;28;19931;-67
2021/05/16 08:16:24;;;;;;;;;;;;;;;;;;5050627;28;20415;-67
2021/05/16 08:18:54;;;;;;;;;;;;;;;;;;5050669;28;19924;-68
2021/05/16 08:21:21;;;;;;;;;;;;;;;;;;5051217;28;20066;-68
2021/05/16 08:23:47;;;;;;;;;;;;;;;;;;5049545;28;20308;-67
2021/05/16 08:26:14;;;;;;;;;;;;;;;;;;5050544;28;20019;-67
2021/05/16 08:28:40;;;;;;;;;;;;;;;;;;5048988;28;19931;-67
2021/05/16 08:31:07;;;;;;;;;;;;;;;;;;5051185;28;20307;-67
2021/05/16 08:33:33;;;;;;;;;;;;;;;;;;5050733;28;19929;-67
2021/05/16 08:36:00;;;;;;;;;;;;;;;;;;5049926;28;19929;-66
2021/05/16 08:38:26;;;;;;;;;;;;;;;;;;5050286;28;19925;-67
2021/05/16 08:40:53;;;;;;;;;;;;;;;;;;5050479;28;19924;-67
2021/05/16 08:43:20;;;;;;;;;;;;;;;;;;5049798;28;19931;-67
2021/05/16 08:45:47;;;;;;;;;;;;;;;;;;5049690;28;19928;-67
2021/05/16 08:48:13;;;;;;;;;;;;;;;;;;5047714;28;19947;-66
2021/05/16 08:50:40;;;;;;;;;;;;;;;;;;5049973;28;19925;-68
2021/05/16 08:53:07;;;;;;;;;;;;;;;;;;5050226;28;19975;-67
2021/05/16 08:55:36;;;;;;;;;;;;;;;;;;5050143;28;19924;-67
2021/05/16 08:58:02;;;;;;;;;;;;;;;;;;5050382;28;20365;-66
2021/05/16 09:00:29;;;;;;;;;;;;;;;;;;5047360;28;20003;-67
2021/05/16 09:02:55;;;;;;;;;;;;;;;;;;5044093;28;20469;-67
2021/05/16 09:05:22;;;;;;;;;;;;;;;;;;5049789;28;19929;-65
2021/05/16 09:07:48;;;;;;;;;;;;;;;;;;5041641;28;20430;-67
2021/05/16 09:10:16;;;;;;;;;;;;;;;;;;5044087;28;19958;-68
2021/05/16 09:12:43;;;;;;;;;;;;;;;;;;5045589;28;20020;-67
2021/05/16 09:15:09;;;;;;;;;;;;;;;;;;5046657;28;19933;-67
2021/05/16 09:17:35;;;;;;;;;;;;;;;;;;5049105;28;19940;-68
2021/05/16 09:20:02;;;;;;;;;;;;;;;;;;5045441;28;19929;-67
2021/05/16 09:22:29;;;;;;;;;;;;;;;;;;5046488;28;19985;-66
2021/05/16 09:24:55;;;;;;;;;;;;;;;;;;5041347;28;20374;-68
2021/05/16 09:27:22;;;;;;;;;;;;;;;;;;5045419;28;19925;-68
2021/05/16 09:29:48;;;;;;;;;;;;;;;;;;5045764;28;19950;-69
2021/05/16 09:32:18;;;;;;;;;;;;;;;;;;5043740;28;20129;-68
2021/05/16 09:34:45;;;;;;;;;;;;;;;;;;5045432;28;20284;-68
2021/05/16 09:37:11;;;;;;;;;;;;;;;;;;5045747;28;19925;-68
2021/05/16 09:39:38;;;;;;;;;;;;;;;;;;5049312;28;20457;-68
2021/05/16 09:42:04;;;;;;;;;;;;;;;;;;5048477;28;19925;-68
2021/05/16 09:44:31;;;;;;;;;;;;;;;;;;5048581;28;19943;-69
2021/05/16 09:46:57;;;;;;;;;;;;;;;;;;5049417;28;20004;-69
2021/05/16 09:49:24;;;;;;;;;;;;;;;;;;5054029;28;19932;-69
2021/05/16 09:51:50;;;;;;;;;;;;;;;;;;5049633;28;20400;-69
2021/05/16 09:54:17;;;;;;;;;;;;;;;;;;5049041;28;19975;-69
2021/05/16 09:56:44;;;;;;;;;;;;;;;;;;5047575;28;19925;-69
2021/05/16 09:59:10;;;;;;;;;;;;;;;;;;5050250;28;19978;-68
2021/05/16 10:01:37;;;;;;;;;;;;;;;;;;5051209;28;19931;-68
2021/05/16 10:04:03;;;;;;;;;;;;;;;;;;5049783;28;19931;-68
2021/05/16 10:06:30;;;;;;;;;;;;;;;;;;5049177;28;19929;-69
2021/05/16 10:08:56;;;;;;;;;;;;;;;;;;5054029;28;20011;-69
2021/05/16 10:11:24;;;;;;;;;;;;;;;;;;5050712;28;19933;-68
2021/05/16 10:13:51;;;;;;;;;;;;;;;;;;5049527;28;19924;-69
2021/05/16 10:16:17;;;;;;;;;;;;;;;;;;5049643;28;20115;-67
2021/05/16 10:18:44;;;;;;;;;;;;;;;;;;5054072;28;19924;-66
2021/05/16 10:21:10;;;;;;;;;;;;;;;;;;5049992;28;19925;-67
2021/05/16 10:23:37;;;;;;;;;;;;;;;;;;5049373;28;20016;-67
2021/05/16 10:26:03;;;;;;;;;;;;;;;;;;5052803;28;19925;-66
2021/05/16 10:28:30;;;;;;;;;;;;;;;;;;5051710;28;19925;-66
2021/05/16 10:30:56;;;;;;;;;;;;;;;;;;5050260;28;20015;-66
2021/05/16 10:33:23;;;;;;;;;;;;;;;;;;5050275;28;19929;-66
2021/05/16 10:35:49;;;;;;;;;;;;;;;;;;5049292;28;19931;-66
2021/05/16 10:38:16;;;;;;;;;;;;;;;;;;5049567;28;20388;-67
2021/05/16 10:40:43;;;;;;;;;;;;;;;;;;5049777;28;20016;-67
2021/05/16 10:43:09;;;;;;;;;;;;;;;;;;5047182;28;19925;-67
2021/05/16 10:45:36;;;;;;;;;;;;;;;;;;5050365;28;19928;-67
2021/05/16 10:48:03;;;;;;;;;;;;;;;;;;5047502;28;19933;-67
2021/05/16 10:50:29;;;;;;;;;;;;;;;;;;5046514;28;19932;-67
2021/05/16 10:52:56;;;;;;;;;;;;;;;;;;5046723;28;19936;-66
2021/05/16 10:55:22;;;;;;;;;;;;;;;;;;5047586;28;19947;-66
2021/05/16 10:57:49;;;;;;;;;;;;;;;;;;5045925;28;19933;-66
2021/05/16 11:00:15;;;;;;;;;;;;;;;;;;5046804;28;19929;-66
2021/05/16 11:02:42;;;;;;;;;;;;;;;;;;5044604;28;19935;-67
2021/05/16 11:05:08;;;;;;;;;;;;;;;;;;5044025;28;20034;-66
2021/05/16 11:07:35;;;;;;;;;;;;;;;;;;5045877;28;20007;-67
2021/05/16 11:10:01;;;;;;;;;;;;;;;;;;5045168;28;19935;-67
2021/05/16 11:12:28;;;;;;;;;;;;;;;;;;5047058;28;19924;-67
2021/05/16 11:14:57;;;;;;;;;;;;;;;;;;5047452;28;19924;-67
2021/05/16 11:17:26;;;;;;;;;;;;;;;;;;5047037;28;20344;-67
2021/05/16 11:19:53;;;;;;;;;;;;;;;;;;5044181;28;19925;-67
2021/05/16 11:22:20;;;;;;;;;;;;;;;;;;5045468;28;19935;-67
2021/05/16 11:24:47;;;;;;;;;;;;;;;;;;5049535;28;19929;-67
2021/05/16 11:27:13;;;;;;;;;;;;;;;;;;5047027;28;19978;-67
2021/05/16 11:29:40;;;;;;;;;;;;;;;;;;5047927;28;19975;-66
2021/05/16 11:32:06;;;;;;;;;;;;;;;;;;5050179;28;19924;-66
2021/05/16 11:34:33;;;;;;;;;;;;;;;;;;5045179;28;19929;-65
2021/05/16 11:36:59;;;;;;;;;;;;;;;;;;5043985;28;19924;-66
2021/05/16 11:39:26;;;;;;;;;;;;;;;;;;5044165;28;19931;-67
2021/05/16 11:41:52;;;;;;;;;;;;;;;;;;5049914;28;19935;-66
2021/05/16 11:44:19;;;;;;;;;;;;;;;;;;5047268;28;19925;-67
2021/05/16 11:46:45;;;;;;;;;;;;;;;;;;5050879;28;19935;-66
2021/05/16 11:49:12;;;;;;;;;;;;;;;;;;5047224;28;19931;-66
2021/05/16 11:51:38;;;;;;;;;;;;;;;;;;5048002;28;19924;-67
2021/05/16 11:54:05;;;;;;;;;;;;;;;;;;5049460;28;20023;-66
2021/05/16 11:56:31;;;;;;;;;;;;;;;;;;5049009;28;19932;-67
2021/05/16 11:58:58;;;;;;;;;;;;;;;;;;5048074;28;19925;-66
2021/05/16 12:01:24;;;;;;;;;;;;;;;;;;5041147;28;20407;-67
2021/05/16 12:03:51;;;;;;;;;;;;;;;;;;5042750;28;19933;-67
2021/05/16 12:06:17;;;;;;;;;;;;;;;;;;5046349;28;19925;-66
2021/05/16 12:08:46;;;;;;;;;;;;;;;;;;5044286;28;19944;-66
2021/05/16 12:11:14;;;;;;;;;;;;;;;;;;5041226;28;19944;-67
2021/05/16 12:13:40;;;;;;;;;;;;;;;;;;5047679;28;19929;-68
2021/05/16 12:16:07;;;;;;;;;;;;;;;;;;5047230;28;19925;-68
2021/05/16 12:18:33;;;;;;;;;;;;;;;;;;5046524;28;19978;-68
2021/05/16 12:21:00;;;;;;;;;;;;;;;;;;5045217;28;19933;-68
2021/05/16 12:23:26;;;;;;;;;;;;;;;;;;5046650;28;19925;-68
2021/05/16 12:25:53;;;;;;;;;;;;;;;;;;5049154;28;19929;-68
2021/05/16 12:28:19;;;;;;;;;;;;;;;;;;5048520;28;20308;-68
2021/05/16 12:30:46;;;;;;;;;;;;;;;;;;5047552;28;19955;-66
2021/05/16 12:33:12;;;;;;;;;;;;;;;;;;5048677;28;19931;-66
2021/05/16 12:35:39;;;;;;;;;;;;;;;;;;5050360;28;19925;-67
2021/05/16 12:38:05;;;;;;;;;;;;;;;;;;5044142;28;19928;-66
2021/05/16 12:40:32;;;;;;;;;;;;;;;;;;5048839;28;19944;-66
2021/05/16 12:42:58;;;;;;;;;;;;;;;;;;5045160;28;19924;-66
2021/05/16 12:45:25;;;;;;;;;;;;;;;;;;5047325;28;19932;-66
2021/05/16 12:47:51;;;;;;;;;;;;;;;;;;5047701;28;19935;-67
2021/05/16 12:50:18;;;;;;;;;;;;;;;;;;5042290;28;19990;-66
2021/05/16 12:52:44;;;;;;;;;;;;;;;;;;5047086;28;20441;-66
2021/05/16 12:55:11;;;;;;;;;;;;;;;;;;5045894;28;20016;-66
2021/05/16 12:57:43;;;;;;;;;;;;;;;;;;5044112;28;19924;-65
2021/05/16 13:00:09;;;;;;;;;;;;;;;;;;5044162;28;20355;-66
2021/05/16 13:02:39;;;;;;;;;;;;;;;;;;5043576;28;19925;-68
2021/05/16 13:05:05;;;;;;;;;;;;;;;;;;5042738;28;19936;-65
2021/05/16 13:07:32;;;;;;;;;;;;;;;;;;5044121;28;20225;-65
2021/05/16 13:09:58;;;;;;;;;;;;;;;;;;5046911;28;19931;-66
2021/05/16 13:12:24;;;;;;;;;;;;;;;;;;5042919;28;19952;-65
2021/05/16 13:14:51;;;;;;;;;;;;;;;;;;5043602;28;19939;-65
2021/05/16 13:17:18;;;;;;;;;;;;;;;;;;5037801;28;19967;-65
2021/05/16 13:19:44;;;;;;;;;;;;;;;;;;5044613;28;19970;-67
2021/05/16 13:22:11;;;;;;;;;;;;;;;;;;5047498;28;19976;-66
2021/05/16 13:24:37;;;;;;;;;;;;;;;;;;5044136;28;20015;-66
2021/05/16 13:27:03;;;;;;;;;;;;;;;;;;5042507;28;19974;-66
2021/05/16 13:29:30;;;;;;;;;;;;;;;;;;5042876;28;19925;-65
2021/05/16 13:31:56;;;;;;;;;;;;;;;;;;5044071;28;19928;-68
2021/05/16 13:34:23;;;;;;;;;;;;;;;;;;5042680;28;19929;-66
2021/05/16 13:36:55;;;;;;;;;;;;;;;;;;5044674;28;19982;-67
2021/05/16 13:39:22;;;;;;;;;;;;;;;;;;5043965;28;19924;-69
2021/05/16 13:41:48;;;;;;;;;;;;;;;;;;5043930;28;19925;-66
2021/05/16 13:44:15;;;;;;;;;;;;;;;;;;5042909;28;20028;-67
2021/05/16 13:46:41;;;;;;;;;;;;;;;;;;5041511;28;19928;-67
2021/05/16 13:49:08;;;;;;;;;;;;;;;;;;5043727;28;19925;-68
2021/05/16 13:51:37;;;;;;;;;;;;;;;;;;5046815;28;19971;-70
2021/05/16 13:54:04;;;;;;;;;;;;;;;;;;5044861;28;20377;-70
2021/05/16 13:56:30;;;;;;;;;;;;;;;;;;5041166;28;20024;-69
2021/05/16 13:58:57;;;;;;;;;;;;;;;;;;5044990;28;19935;-69
2021/05/16 14:01:23;;;;;;;;;;;;;;;;;;5043990;28;19932;-68
2021/05/16 14:03:50;;;;;;;;;;;;;;;;;;5045985;28;19971;-68
2021/05/16 14:06:16;;;;;;;;;;;;;;;;;;5043534;28;19970;-69
2021/05/16 14:08:43;;;;;;;;;;;;;;;;;;5044393;28;19968;-67
2021/05/16 14:11:09;;;;;;;;;;;;;;;;;;5043378;28;19935;-67
2021/05/16 14:13:36;;;;;;;;;;;;;;;;;;5045809;28;20285;-67
2021/05/16 14:16:03;;;;;;;;;;;;;;;;;;5045341;28;20299;-68
2021/05/16 14:18:29;;;;;;;;;;;;;;;;;;5044721;28;19925;-68
2021/05/16 14:20:56;;;;;;;;;;;;;;;;;;5044330;28;20380;-67
2021/05/16 14:23:22;;;;;;;;;;;;;;;;;;5041373;28;19924;-67
2021/05/16 14:25:49;;;;;;;;;;;;;;;;;;5047896;28;19924;-67
2021/05/16 14:28:15;;;;;;;;;;;;;;;;;;5048098;28;19929;-69
2021/05/16 14:30:45;;;;;;;;;;;;;;;;;;5047915;28;20457;-70
2021/05/16 14:33:11;;;;;;;;;;;;;;;;;;5046371;28;19928;-73
2021/05/16 14:35:38;;;;;;;;;;;;;;;;;;5048586;28;19982;-71
2021/05/16 14:38:04;;;;;;;;;;;;;;;;;;5052058;28;20563;-69
2021/05/16 14:40:31;;;;;;;;;;;;;;;;;;5048357;28;19931;-70
2021/05/16 14:42:58;;;;;;;;;;;;;;;;;;5047887;28;20343;-74
2021/05/16 14:45:24;;;;;;;;;;;;;;;;;;5044799;28;19955;-69
2021/05/16 14:47:51;;;;;;;;;;;;;;;;;;5045866;28;19960;-68
2021/05/16 14:50:17;;;;;;;;;;;;;;;;;;5043640;28;19925;-69
2021/05/16 14:52:43;;;;;;;;;;;;;;;;;;5046328;28;20033;-68
2021/05/16 14:55:10;;;;;;;;;;;;;;;;;;5047165;28;19933;-68
2021/05/16 14:57:37;;;;;;;;;;;;;;;;;;5047288;28;19974;-68
2021/05/16 15:00:03;;;;;;;;;;;;;;;;;;5046104;28;20005;-68
2021/05/16 15:02:29;;;;;;;;;;;;;;;;;;5044976;28;19925;-68
2021/05/16 15:04:56;;;;;;;;;;;;;;;;;;5045113;28;20440;-67
2021/05/16 15:07:24;;;;;;;;;;;;;;;;;;5046074;28;20016;-67
2021/05/16 15:09:50;;;;;;;;;;;;;;;;;;5045806;28;19924;-67
2021/05/16 15:12:17;;;;;;;;;;;;;;;;;;5079126;22;20023;-68
2021/05/16 15:14:43;;;;;;;;;;;;;;;;;;5075947;28;20407;-67
2021/05/16 15:17:10;;;;;;;;;;;;;;;;;;5077608;28;19932;-68
2021/05/16 15:19:36;;;;;;;;;;;;;;;;;;5075958;28;20019;-67
2021/05/16 15:22:03;;;;;;;;;;;;;;;;;;5069192;28;20471;-68
2021/05/16 15:24:29;;;;;;;;;;;;;;;;;;5063734;28;19932;-68
2021/05/16 15:26:56;;;;;;;;;;;;;;;;;;5062974;28;20640;-67
2021/05/16 15:29:23;;;;;;;;;;;;;;;;;;5063704;28;19929;-67
2021/05/16 15:31:49;;;;;;;;;;;;;;;;;;5061128;28;19925;-67
2021/05/16 15:34:16;;;;;;;;;;;;;;;;;;5063372;28;20019;-67
2021/05/16 15:36:42;;;;;;;;;;;;;;;;;;5064503;28;19932;-67
2021/05/16 15:39:09;;;;;;;;;;;;;;;;;;5060714;28;19938;-66
2021/05/16 15:41:35;;;;;;;;;;;;;;;;;;5063648;28;20285;-67
2021/05/16 15:44:02;;;;;;;;;;;;;;;;;;5064148;28;20392;-67
2021/05/16 15:46:29;;;;;;;;;;;;;;;;;;5063728;28;20296;-68
2021/05/16 15:48:55;;;;;;;;;;;;;;;;;;5064084;28;19967;-67
2021/05/16 15:51:21;;;;;;;;;;;;;;;;;;5058273;28;19932;-67
2021/05/16 15:53:48;;;;;;;;;;;;;;;;;;5063154;28;19931;-67
2021/05/16 15:56:14;;;;;;;;;;;;;;;;;;5069184;28;19961;-67
2021/05/16 15:58:41;;;;;;;;;;;;;;;;;;5060016;28;20402;-67
2021/05/16 16:01:09;;;;;;;;;;;;;;;;;;5062115;28;19924;-66
2021/05/16 16:03:35;;;;;;;;;;;;;;;;;;5067092;28;19932;-66
2021/05/16 16:06:02;;;;;;;;;;;;;;;;;;5060225;28;19925;-66
2021/05/16 16:08:28;;;;;;;;;;;;;;;;;;5062665;28;19924;-67
2021/05/16 16:10:54;;;;;;;;;;;;;;;;;;5063476;28;20357;-68
2021/05/16 16:13:21;;;;;;;;;;;;;;;;;;5060739;28;19975;-68
2021/05/16 16:15:47;;;;;;;;;;;;;;;;;;5061982;28;19932;-68
2021/05/16 16:18:14;;;;;;;;;;;;;;;;;;5065344;28;19924;-67
2021/05/16 16:20:41;;;;;;;;;;;;;;;;;;5061054;28;20388;-67
2021/05/16 16:23:07;;;;;;;;;;;;;;;;;;5062094;28;19929;-68
2021/05/16 16:25:34;;;;;;;;;;;;;;;;;;5062211;28;20043;-67
2021/05/16 16:28:00;;;;;;;;;;;;;;;;;;5064029;28;19932;-66
2021/05/16 16:30:27;;;;;;;;;;;;;;;;;;5059437;28;20388;-67
2021/05/16 16:32:54;;;;;;;;;;;;;;;;;;5057571;28;20384;-67
2021/05/16 16:35:20;;;;;;;;;;;;;;;;;;5061290;28;19994;-68
2021/05/16 16:37:47;;;;;;;;;;;;;;;;;;5061855;28;19929;-68
2021/05/16 16:40:13;;;;;;;;;;;;;;;;;;5064041;28;19932;-68